Time;durP1;ratioP1;P1;durP2;ratioP2;P2;SDS_P1;SDS_P2;PMS_P1;PMS_P2;Temp;Humidity;BMP_temperature;BMP_pressure;BME280_temperature;BME280_humidity;BME280_pressure;Samples;Min_cycle;Max_cycle;Signal;HPM_P1;HPM_P2
2022/12/09 00:00:08;;;;;;;19.30;9.80;;;;;;;1.36;79.58;95904.27;105826;1285;22463;-86
2022/12/09 00:02:57;;;;;;;18.30;9.50;;;;;;;1.31;79.60;95900.66;105862;1286;22453;-86
2022/12/09 00:05:26;;;;;;;14.80;8.50;;;;;;;1.29;79.67;95899.31;105854;1286;22522;-87
2022/12/09 00:07:56;;;;;;;16.40;10.00;;;;;;;1.28;79.56;95899.98;104938;1294;1158910;-87
2022/12/09 00:10:25;;;;;;;15.40;9.10;;;;;;;1.29;79.38;95905.53;105851;1282;22498;-86
2022/12/09 00:12:55;;;;;;;14.40;9.10;;;;;;;1.30;79.50;95906.23;105854;1301;22476;-86
2022/12/09 00:15:26;;;;;;;15.10;10.00;;;;;;;1.31;79.42;95909.38;105612;1304;24682;-86
2022/12/09 00:17:55;;;;;;;15.30;9.30;;;;;;;1.31;79.67;95905.15;105764;1303;22477;-86
2022/12/09 00:20:23;;;;;;;13.40;9.10;;;;;;;1.32;79.47;95902.70;105836;1301;22504;-87
2022/12/09 00:22:52;;;;;;;12.60;7.80;;;;;;;1.34;79.65;95896.89;105836;1301;22446;-87
2022/12/09 00:25:21;;;;;;;14.80;8.50;;;;;;;1.36;79.37;95898.43;105807;1291;23743;-87
2022/12/09 00:27:49;;;;;;;14.10;8.40;;;;;;;1.35;79.41;95895.38;105783;1301;22481;-87
2022/12/09 00:30:18;;;;;;;18.60;11.50;;;;;;;1.33;79.59;95900.16;105585;1303;22906;-87
2022/12/09 00:32:46;;;;;;;18.50;11.50;;;;;;;1.30;79.75;95901.21;105592;1302;25967;-86
2022/12/09 00:35:17;;;;;;;18.50;11.20;;;;;;;1.30;79.70;95901.17;105669;1287;26038;-87
2022/12/09 00:37:46;;;;;;;18.90;11.80;;;;;;;1.29;79.93;95905.70;105715;1301;26516;-87
2022/12/09 00:40:15;;;;;;;20.20;11.00;;;;;;;1.27;79.88;95910.02;105818;1295;25267;-87
2022/12/09 00:42:44;;;;;;;17.50;10.50;;;;;;;1.27;79.83;95905.58;105828;1299;22460;-87
2022/12/09 00:45:15;;;;;;;17.00;10.60;;;;;;;1.27;80.03;95909.18;105816;1301;24236;-87
2022/12/09 00:47:44;;;;;;;18.00;11.00;;;;;;;1.27;80.13;95911.63;105797;1301;36391;-87
2022/12/09 00:50:14;;;;;;;16.90;10.60;;;;;;;1.25;80.11;95910.82;105847;1286;22459;-86
2022/12/09 00:52:43;;;;;;;10.90;7.10;;;;;;;1.25;80.11;95903.77;105876;1295;24262;-87
2022/12/09 00:55:11;;;;;;;16.00;9.50;;;;;;;1.25;80.02;95903.52;105871;1301;22507;-86
2022/12/09 00:57:40;;;;;;;15.20;10.70;;;;;;;1.27;80.01;95899.59;105798;1301;22908;-86
2022/12/09 01:00:10;;;;;;;15.00;10.20;;;;;;;1.28;80.04;95898.41;105848;1289;22458;-86
2022/12/09 01:02:39;;;;;;;;;;;;;;;1.28;80.08;95901.55;105846;1287;23184;-87
2022/12/09 01:05:08;;;;;;;16.40;10.70;;;;;;;1.28;80.06;95903.48;105850;1301;24269;-87
2022/12/09 01:07:37;;;;;;;16.40;10.00;;;;;;;1.28;80.09;95910.27;105790;1301;22623;-87
2022/12/09 01:10:10;;;;;;;15.40;10.60;;;;;;;1.27;80.12;95913.16;105826;1299;22468;-87
2022/12/09 01:12:38;;;;;;;17.50;10.70;;;;;;;1.26;80.32;95914.02;105795;1304;23805;-86
2022/12/09 01:15:08;;;;;;;17.20;10.70;;;;;;;1.23;80.35;95911.89;105861;1286;22477;-87
2022/12/09 01:17:38;;;;;;;18.00;11.50;;;;;;;1.21;80.44;95911.70;105742;1301;91775;-86
2022/12/09 01:20:09;;;;;;;16.90;11.30;;;;;;;1.18;80.58;95918.83;105863;1301;22419;-86
2022/12/09 01:22:38;;;;;;;17.60;10.50;;;;;;;1.18;80.78;95916.21;105803;1301;24244;-86
2022/12/09 01:25:07;;;;;;;15.60;10.00;;;;;;;1.15;80.73;95915.60;105791;1301;22482;-87
2022/12/09 01:27:36;;;;;;;16.80;9.90;;;;;;;1.14;80.87;95914.95;105771;1301;22417;-87
2022/12/09 01:30:11;;;;;;;15.20;9.50;;;;;;;1.14;81.15;95918.20;105881;1301;22461;-87
2022/12/09 01:32:40;;;;;;;16.30;10.00;;;;;;;1.13;81.20;95911.43;105873;1301;22489;-87
2022/12/09 01:35:09;;;;;;;16.40;10.20;;;;;;;1.13;80.99;95910.03;105870;1291;22489;-86
2022/12/09 01:37:38;;;;;;;16.60;10.00;;;;;;;1.14;80.88;95910.67;105710;1296;23926;-86
2022/12/09 01:40:14;;;;;;;15.10;10.30;;;;;;;1.16;81.09;95920.25;105630;1303;22458;-86
2022/12/09 01:42:43;;;;;;;16.60;10.20;;;;;;;1.13;81.05;95920.11;105670;1302;23515;-86
2022/12/09 01:45:48;;;;;;;17.10;10.50;;;;;;;1.13;81.00;95918.18;105682;1287;26502;-86
2022/12/09 01:48:18;;;;;;;15.70;9.70;;;;;;;1.14;80.89;95924.55;105494;1303;22469;-86
2022/12/09 01:50:51;;;;;;;16.90;10.00;;;;;;;1.14;80.79;95921.42;105545;1300;22442;-86
2022/12/09 01:53:24;;;;;;;19.90;10.40;;;;;;;1.13;80.78;95922.45;105560;1303;22555;-86
2022/12/09 01:55:53;;;;;;;15.80;10.80;;;;;;;1.11;80.75;95921.30;105559;1283;22457;-86
2022/12/09 01:58:22;;;;;;;15.50;9.60;;;;;;;1.11;80.76;95924.28;105672;1294;55712;-86
2022/12/09 02:00:50;;;;;;;17.10;10.60;;;;;;;1.11;80.84;95921.02;105836;1301;22585;-87
2022/12/09 02:03:19;;;;;;;17.60;10.10;;;;;;;1.12;80.79;95914.18;105814;1285;24240;-87
2022/12/09 02:05:48;;;;;;;17.70;10.60;;;;;;;1.13;80.69;95912.80;105818;1296;26462;-87
2022/12/09 02:08:19;;;;;;;16.20;11.10;;;;;;;1.12;80.87;95908.23;105784;1301;24675;-86
2022/12/09 02:10:51;;;;;;;;;;;;;;;1.12;80.85;95904.29;105814;1296;23909;-87
2022/12/09 02:13:27;;;;;;;17.50;10.50;;;;;;;1.11;80.82;95905.06;105874;1301;22455;-87
2022/12/09 02:15:59;;;;;;;15.00;9.10;;;;;;;1.11;80.89;95896.33;105854;1301;23910;-87
2022/12/09 02:18:35;;;;;;;17.10;10.20;;;;;;;1.07;81.03;95894.93;105532;1297;75278;-87
2022/12/09 02:21:09;;;;;;;17.30;10.90;;;;;;;1.04;81.37;95893.36;105537;1303;22481;-87
2022/12/09 02:23:46;;;;;;;15.60;9.80;;;;;;;1.02;81.36;95895.02;105554;1298;22495;-87
2022/12/09 02:26:21;;;;;;;18.10;11.10;;;;;;;1.02;81.36;95896.56;105563;1303;25273;-87
2022/12/09 02:29:12;;;;;;;18.70;11.20;;;;;;;1.00;81.30;95897.95;105713;1301;120272;-88
2022/12/09 02:31:58;;;;;;;16.00;10.30;;;;;;;1.00;81.68;95900.82;105829;1299;22525;-86
2022/12/09 02:34:31;;;;;;;17.40;10.70;;;;;;;0.99;81.50;95897.63;105848;1301;25252;-87
2022/12/09 02:37:08;;;;;;;16.70;10.30;;;;;;;0.98;81.54;95895.34;105791;1286;60644;-86
2022/12/09 02:39:42;;;;;;;18.70;10.50;;;;;;;0.99;81.58;95891.93;105819;1302;25221;-86
2022/12/09 02:42:16;;;;;;;17.10;10.50;;;;;;;0.99;81.85;95889.22;105840;1293;22526;-86
2022/12/09 02:44:48;;;;;;;16.10;10.10;;;;;;;0.99;81.71;95891.36;105812;1301;22481;-86
2022/12/09 02:47:22;;;;;;;16.10;10.00;;;;;;;0.99;81.81;95896.01;105855;1301;69239;-86
2022/12/09 02:49:57;;;;;;;15.70;9.90;;;;;;;1.00;81.65;95896.64;105814;1291;23298;-87
2022/12/09 02:52:28;;;;;;;14.50;9.00;;;;;;;1.01;81.62;95892.16;105815;1301;22716;-87
2022/12/09 02:54:56;;;;;;;;;;;;;;;1.02;81.72;95888.12;105899;1301;22434;-86
2022/12/09 02:57:28;;;;;;;13.60;8.50;;;;;;;1.02;81.69;95890.77;105781;1301;23844;-86
2022/12/09 02:59:58;;;;;;;14.50;10.30;;;;;;;1.02;81.72;95890.77;105877;1291;26427;-87
2022/12/09 03:02:30;;;;;;;14.10;10.00;;;;;;;1.01;81.84;95897.49;105832;1286;22507;-87
2022/12/09 03:05:10;;;;;;;14.50;9.10;;;;;;;1.00;82.04;95897.80;105848;1301;22454;-87
2022/12/09 03:07:43;;;;;;;14.90;9.50;;;;;;;1.00;81.87;95899.62;105822;1301;22087;-87
2022/12/09 03:10:16;;;;;;;16.20;10.30;;;;;;;0.99;82.00;95904.56;105804;1299;22481;-87
2022/12/09 03:12:51;;;;;;;14.50;9.90;;;;;;;0.98;81.99;95898.36;105851;1301;26653;-87
2022/12/09 03:15:30;;;;;;;16.80;9.50;;;;;;;0.95;81.89;95886.21;105860;1279;22544;-87
2022/12/09 03:18:02;;;;;;;13.80;8.60;;;;;;;0.94;81.70;95882.85;105773;1291;58181;-86
2022/12/09 03:20:35;;;;;;;14.80;9.10;;;;;;;0.92;81.67;95879.58;105837;1301;22512;-87
2022/12/09 03:23:08;;;;;;;14.00;8.50;;;;;;;0.90;81.82;95873.19;105880;1301;22553;-87
2022/12/09 03:25:41;;;;;;;15.80;9.00;;;;;;;0.89;81.81;95873.39;105845;1284;22483;-87
2022/12/09 03:28:16;;;;;;;15.70;9.50;;;;;;;0.86;81.80;95876.21;105785;1301;59801;-87
2022/12/09 03:30:46;;;;;;;15.80;9.40;;;;;;;0.83;81.73;95878.70;105860;1285;25255;-87
2022/12/09 03:33:17;;;;;;;14.20;9.10;;;;;;;0.78;81.86;95878.45;105823;1299;24529;-86
2022/12/09 03:35:52;;;;;;;14.30;8.60;;;;;;;0.74;81.87;95879.91;105855;1293;22499;-88
2022/12/09 03:38:23;;;;;;;13.70;10.10;;;;;;;0.71;82.23;95879.80;105794;1291;30329;-87
2022/12/09 03:41:00;;;;;;;15.90;9.50;;;;;;;0.69;82.10;95883.19;105821;1303;22468;-87
2022/12/09 03:43:35;;;;;;;18.00;10.30;;;;;;;0.67;82.11;95879.55;105856;1301;23944;-87
2022/12/09 03:46:04;;;;;;;17.50;10.40;;;;;;;0.64;82.27;95882.27;105873;1301;23610;-86
2022/12/09 03:48:35;;;;;;;14.40;9.10;;;;;;;0.61;82.48;95883.63;105813;1292;22580;-86
2022/12/09 03:51:09;;;;;;;17.00;10.10;;;;;;;0.55;82.70;95881.02;105833;1301;22490;-87
2022/12/09 03:53:43;;;;;;;15.60;10.10;;;;;;;0.48;82.78;95877.64;105752;1301;22505;-86
2022/12/09 03:56:19;;;;;;;16.40;10.10;;;;;;;0.46;82.77;95878.92;105854;1285;22452;-86
2022/12/09 03:58:52;;;;;;;16.00;9.90;;;;;;;0.45;82.79;95872.65;105795;1301;23322;-86
2022/12/09 04:01:22;;;;;;;14.20;9.30;;;;;;;0.42;82.94;95871.13;105836;1302;22462;-87
2022/12/09 04:03:54;;;;;;;14.90;9.80;;;;;;;0.40;82.75;95868.10;105868;1282;24284;-87
2022/12/09 04:06:23;;;;;;;15.80;10.00;;;;;;;0.37;82.93;95866.54;105866;1288;22448;-87
2022/12/09 04:08:52;;;;;;;13.80;9.20;;;;;;;0.35;83.03;95862.43;105831;1285;22482;-87
2022/12/09 04:11:21;;;;;;;13.90;9.00;;;;;;;0.30;83.14;95867.70;105803;1301;22980;-87
2022/12/09 04:13:49;;;;;;;15.00;9.40;;;;;;;0.25;83.16;95869.08;105854;1301;22756;-87
2022/12/09 04:16:18;;;;;;;12.90;8.90;;;;;;;0.20;83.34;95868.56;105867;1289;22466;-87
2022/12/09 04:18:46;;;;;;;12.20;8.30;;;;;;;0.16;83.53;95868.78;105815;1301;24238;-87
2022/12/09 04:21:15;;;;;;;12.90;8.30;;;;;;;0.10;83.63;95870.73;105849;1292;22465;-86
2022/12/09 04:23:43;;;;;;;13.10;8.30;;;;;;;0.03;83.50;95873.23;105828;1295;22479;-86
2022/12/09 04:26:17;;;;;;;14.60;8.60;;;;;;;-0.05;83.66;95874.41;105821;1301;25411;-86
2022/12/09 04:28:45;;;;;;;12.90;8.30;;;;;;;-0.13;83.81;95874.92;105766;1278;26467;-86
2022/12/09 04:31:16;;;;;;;12.90;7.90;;;;;;;-0.19;83.73;95874.07;105816;1299;23216;-86
2022/12/09 04:33:45;;;;;;;12.20;7.80;;;;;;;-0.22;84.03;95872.64;105796;1299;24249;-86
2022/12/09 04:36:16;;;;;;;12.40;8.00;;;;;;;-0.23;84.20;95875.80;105818;1304;24247;-86
2022/12/09 04:38:45;;;;;;;11.60;7.10;;;;;;;-0.25;84.12;95876.48;105806;1301;45990;-86
2022/12/09 04:41:14;;;;;;;11.00;6.10;;;;;;;-0.29;84.24;95880.10;105841;1299;22458;-86
2022/12/09 04:43:43;;;;;;;9.90;6.20;;;;;;;-0.32;84.40;95875.66;105882;1288;22466;-86
2022/12/09 04:46:13;;;;;;;10.80;6.70;;;;;;;-0.34;84.57;95878.89;105858;1301;23376;-86
2022/12/09 04:48:42;;;;;;;11.90;7.30;;;;;;;-0.34;84.62;95882.16;105767;1285;24946;-86
2022/12/09 04:51:13;;;;;;;9.60;6.00;;;;;;;-0.47;84.66;95882.45;105873;1291;25247;-87
2022/12/09 04:53:41;;;;;;;;;;;;;;;-0.64;84.79;95882.17;105823;1304;22495;-86
2022/12/09 04:56:13;;;;;;;10.00;5.70;;;;;;;-0.76;85.05;95888.56;105832;1301;23134;-86
2022/12/09 04:58:43;;;;;;;10.50;6.40;;;;;;;-0.82;85.42;95892.33;105811;1298;25688;-86
2022/12/09 05:01:16;;;;;;;11.80;6.60;;;;;;;-0.77;85.58;95892.23;105856;1301;22500;-86
2022/12/09 05:03:49;;;;;;;11.30;6.60;;;;;;;-0.73;85.73;95894.29;105896;1301;24354;-87
2022/12/09 05:06:19;;;;;;;13.00;7.60;;;;;;;-0.70;85.71;95892.73;105866;1299;23815;-87
2022/12/09 05:08:49;;;;;;;11.20;7.30;;;;;;;-0.65;85.81;95889.48;105545;1293;31651;-87
2022/12/09 05:11:20;;;;;;;11.90;7.00;;;;;;;-0.62;85.72;95888.20;105564;1303;22506;-86
2022/12/09 05:13:49;;;;;;;10.60;6.60;;;;;;;-0.63;85.80;95889.45;105640;1295;22469;-86
2022/12/09 05:16:19;;;;;;;19.80;9.20;;;;;;;-0.62;85.80;95887.59;105608;1295;22515;-87
2022/12/09 05:18:49;;;;;;;15.70;9.50;;;;;;;-0.61;85.80;95882.20;105657;1303;29821;-87
2022/12/09 05:21:19;;;;;;;14.10;6.70;;;;;;;-0.63;85.69;95879.95;105586;1303;22479;-87
2022/12/09 05:23:48;;;;;;;13.60;7.10;;;;;;;-0.68;85.61;95880.13;105646;1303;22473;-87
2022/12/09 05:26:19;;;;;;;13.30;7.50;;;;;;;-0.70;85.96;95878.95;105587;1303;22509;-87
2022/12/09 05:28:48;;;;;;;12.40;7.40;;;;;;;-0.71;85.94;95876.16;105567;1287;45835;-87
2022/12/09 05:31:20;;;;;;;16.10;7.10;;;;;;;-0.71;85.94;95876.67;105589;1288;24268;-87
2022/12/09 05:33:50;;;;;;;14.90;7.20;;;;;;;-0.75;85.90;95877.02;105580;1287;22468;-86
2022/12/09 05:36:24;;;;;;;10.10;6.80;;;;;;;-0.79;85.70;95881.62;105552;1284;26601;-86
2022/12/09 05:38:53;;;;;;;12.50;7.50;;;;;;;-0.85;85.58;95878.83;105574;1303;22513;-86
2022/12/09 05:41:22;;;;;;;11.90;7.10;;;;;;;-0.89;85.80;95880.22;105629;1296;22475;-86
2022/12/09 05:43:51;;;;;;;13.20;7.90;;;;;;;-0.94;85.77;95878.24;105584;1282;22530;-87
2022/12/09 05:46:20;;;;;;;29.90;14.60;;;;;;;-0.98;85.93;95876.02;105612;1288;25379;-86
2022/12/09 05:48:49;;;;;;;17.10;10.20;;;;;;;-0.99;86.26;95874.55;105520;1303;22473;-86
2022/12/09 05:51:23;;;;;;;16.40;11.10;;;;;;;-1.00;86.13;95875.20;105638;1303;22611;-87
2022/12/09 05:53:54;;;;;;;14.30;9.60;;;;;;;-1.00;86.38;95876.84;105613;1303;22596;-86
2022/12/09 05:56:25;;;;;;;11.90;7.50;;;;;;;-0.99;86.56;95874.00;105620;1303;22634;-86
2022/12/09 05:58:55;;;;;;;12.00;7.30;;;;;;;-1.01;86.09;95869.53;105752;1301;74984;-86
2022/12/09 06:01:25;;;;;;;10.20;6.80;;;;;;;-1.02;86.49;95868.36;105820;1287;22463;-86
2022/12/09 06:03:54;;;;;;;25.30;12.70;;;;;;;-1.03;86.42;95866.41;105785;1304;22457;-86
2022/12/09 06:06:36;;;;;;;;;;;;;;;;;;;;;
2022/12/09 06:09:10;;;;;;;17.60;9.50;;;;;;;-1.03;86.58;95867.09;105756;1300;27912;-86
2022/12/09 06:11:41;;;;;;;15.50;8.90;;;;;;;-1.04;86.48;95870.50;105822;1301;22503;-86
2022/12/09 06:14:10;;;;;;;10.70;6.40;;;;;;;-1.04;86.63;95876.48;105857;1301;24253;-85
2022/12/09 06:16:43;;;;;;;9.20;5.80;;;;;;;-1.03;86.64;95882.02;105816;1301;23136;-86
2022/12/09 06:19:13;;;;;;;10.90;6.20;;;;;;;-1.01;86.77;95876.23;105834;1301;22527;-86
2022/12/09 06:21:42;;;;;;;9.00;5.90;;;;;;;-0.99;86.83;95879.48;105869;1301;22928;-85
2022/12/09 06:24:11;;;;;;;9.50;5.80;;;;;;;-0.98;86.71;95878.84;105852;1301;22514;-86
2022/12/09 06:26:42;;;;;;;10.20;6.30;;;;;;;-1.00;86.64;95880.21;105816;1301;22521;-86
2022/12/09 06:29:14;;;;;;;11.90;7.30;;;;;;;-1.00;86.85;95885.09;105566;1303;23253;-87
2022/12/09 06:31:42;;;;;;;10.50;6.60;;;;;;;-1.01;86.78;95880.14;105644;1281;24643;-86
2022/12/09 06:34:13;;;;;;;10.90;6.30;;;;;;;-1.01;86.51;95884.63;105590;1302;22491;-86
2022/12/09 06:36:44;;;;;;;9.70;6.00;;;;;;;-1.01;86.59;95890.02;105631;1295;22538;-86
2022/12/09 06:39:14;;;;;;;10.80;6.20;;;;;;;-1.02;86.68;95892.13;105563;1303;25262;-86
2022/12/09 06:41:43;;;;;;;10.40;5.80;;;;;;;-1.02;86.76;95889.00;105635;1300;22473;-85
2022/12/09 06:44:13;;;;;;;10.00;5.90;;;;;;;-1.02;86.78;95888.65;105572;1301;22600;-86
2022/12/09 06:46:42;;;;;;;10.70;6.40;;;;;;;-1.03;86.66;95883.63;105623;1296;23006;-86
2022/12/09 06:49:10;;;;;;;11.30;6.20;;;;;;;-1.04;86.57;95881.27;105837;1293;22464;-86
2022/12/09 06:51:39;;;;;;;9.80;6.00;;;;;;;-1.05;86.90;95876.16;105871;1284;26585;-85
2022/12/09 06:54:08;;;;;;;10.60;6.10;;;;;;;-1.06;86.65;95881.06;105852;1301;22530;-86
2022/12/09 06:56:37;;;;;;;12.10;7.10;;;;;;;-1.07;87.02;95876.37;105942;1296;22936;-85
2022/12/09 06:59:09;;;;;;;10.30;6.20;;;;;;;-1.05;87.20;95872.98;105770;1293;22469;-85
2022/12/09 07:01:38;;;;;;;9.40;5.70;;;;;;;-1.05;86.91;95882.34;105861;1285;23147;-86
2022/12/09 07:04:07;;;;;;;10.10;6.80;;;;;;;-1.06;87.07;95880.80;105888;1292;22559;-86
2022/12/09 07:06:38;;;;;;;10.60;7.00;;;;;;;-1.04;87.04;95879.23;105860;1301;24249;-86
2022/12/09 07:09:06;;;;;;;;;;;;;;;-1.02;87.19;95881.48;105490;1292;66363;-86
2022/12/09 07:11:36;;;;;;;8.80;6.00;;;;;;;-1.01;87.25;95885.44;105592;1302;25274;-85
2022/12/09 07:14:04;;;;;;;11.10;6.80;;;;;;;-1.05;87.20;95880.16;105568;1302;22500;-86
2022/12/09 07:16:33;;;;;;;11.50;7.20;;;;;;;-1.02;87.33;95875.75;105628;1303;22578;-85
2022/12/09 07:19:03;;;;;;;10.50;7.00;;;;;;;-0.98;87.10;95873.48;105564;1281;23117;-86
2022/12/09 07:21:32;;;;;;;14.50;7.60;;;;;;;-0.90;87.31;95875.15;105636;1293;23901;-86
2022/12/09 07:24:01;;;;;;;12.20;7.40;;;;;;;-0.75;87.66;95872.95;105604;1281;22463;-86
2022/12/09 07:26:32;;;;;;;12.40;7.60;;;;;;;-0.60;87.01;95871.34;105550;1302;24736;-86
2022/12/09 07:29:01;;;;;;;;;;;;;;;-0.45;87.14;95865.84;105597;1303;30681;-87
2022/12/09 07:31:31;;;;;;;11.40;7.60;;;;;;;-0.26;87.24;95868.34;105597;1294;22796;-86
2022/12/09 07:34:00;;;;;;;10.20;6.10;;;;;;;-0.03;87.34;95863.73;105590;1300;22502;-85
2022/12/09 07:36:31;;;;;;;10.20;6.20;;;;;;;0.32;87.57;95853.41;105663;1303;22491;-86
2022/12/09 07:39:01;;;;;;;10.20;6.30;;;;;;;0.69;87.08;95849.96;105508;1303;24364;-86
2022/12/09 07:41:30;;;;;;;10.60;6.30;;;;;;;1.12;86.70;95847.08;105608;1298;22502;-86
2022/12/09 07:44:02;;;;;;;9.40;6.50;;;;;;;1.48;86.26;95845.13;105627;1301;23198;-86
2022/12/09 07:46:31;;;;;;;9.80;6.80;;;;;;;1.74;85.98;95842.46;105629;1303;22480;-87
2022/12/09 07:49:03;;;;;;;9.90;6.70;;;;;;;1.77;85.11;95841.61;105613;1303;22526;-87
2022/12/09 07:51:32;;;;;;;10.80;6.80;;;;;;;1.73;84.64;95842.73;105604;1280;22466;-86
2022/12/09 07:54:01;;;;;;;11.50;6.90;;;;;;;1.69;84.42;95838.96;105632;1279;22496;-86
2022/12/09 07:56:30;;;;;;;10.60;7.30;;;;;;;1.67;84.21;95843.66;105595;1272;24239;-87
2022/12/09 07:59:00;;;;;;;9.30;6.40;;;;;;;1.74;84.25;95842.41;105524;1302;38160;-87
2022/12/09 08:01:31;;;;;;;7.50;5.40;;;;;;;1.91;83.97;95842.63;105620;1302;22506;-87
2022/12/09 08:04:03;;;;;;;9.90;6.40;;;;;;;1.92;83.05;95840.29;105569;1303;22509;-87
2022/12/09 08:06:32;;;;;;;8.60;5.50;;;;;;;1.74;82.63;95839.18;105640;1303;23678;-87
2022/12/09 08:09:03;;;;;;;9.20;6.40;;;;;;;1.56;82.50;95838.29;105551;1277;41236;-87
2022/12/09 08:11:33;;;;;;;10.20;6.60;;;;;;;1.50;82.94;95836.55;105599;1302;22496;-85
2022/12/09 08:14:04;;;;;;;12.20;8.20;;;;;;;1.51;83.18;95835.39;105599;1302;22469;-88
2022/12/09 08:16:35;;;;;;;14.80;9.40;;;;;;;1.55;83.50;95833.77;105642;1295;22484;-89
2022/12/09 08:19:05;;;;;;;11.90;8.10;;;;;;;1.60;83.24;95834.70;105448;1288;47927;-82
2022/12/09 08:21:34;;;;;;;13.00;8.00;;;;;;;1.59;82.71;95828.77;105631;1295;22668;-84
2022/12/09 08:24:06;;;;;;;12.30;8.10;;;;;;;1.49;82.45;95831.51;105633;1288;25230;-82
2022/12/09 08:26:35;;;;;;;14.30;8.10;;;;;;;1.45;82.62;95834.59;105637;1295;24283;-81
2022/12/09 08:29:08;;;;;;;16.10;9.50;;;;;;;1.44;82.50;95839.64;105535;1287;22662;-83
2022/12/09 08:31:37;;;;;;;15.50;9.40;;;;;;;1.50;82.76;95842.23;105604;1287;23747;-81
2022/12/09 08:34:06;;;;;;;13.20;8.90;;;;;;;1.64;82.90;95846.20;105691;1295;22528;-83
2022/12/09 08:36:35;;;;;;;11.40;7.50;;;;;;;1.80;82.91;95847.73;105646;1294;22513;-82
2022/12/09 08:39:07;;;;;;;13.40;7.60;;;;;;;1.99;82.89;95847.13;105578;1287;22454;-82
2022/12/09 08:41:36;;;;;;;11.00;5.80;;;;;;;2.16;82.62;95846.86;105659;1284;22537;-83
2022/12/09 08:44:08;;;;;;;8.90;5.70;;;;;;;2.26;82.04;95852.80;105639;1288;24246;-82
2022/12/09 08:46:39;;;;;;;7.70;5.40;;;;;;;2.31;81.74;95851.17;105650;1281;23951;-83
2022/12/09 08:49:09;;;;;;;7.80;5.60;;;;;;;2.30;81.54;95845.94;105775;1276;23225;-83
2022/12/09 08:51:38;;;;;;;9.70;5.90;;;;;;;2.33;81.27;95844.04;105863;1279;22477;-83
2022/12/09 08:54:06;;;;;;;11.20;6.60;;;;;;;2.27;81.05;95845.77;105863;1279;23574;-82
2022/12/09 08:56:35;;;;;;;9.70;6.70;;;;;;;2.31;80.96;95840.98;105856;1284;22459;-83
2022/12/09 08:59:04;;;;;;;11.20;7.20;;;;;;;2.42;81.23;95843.45;105852;1285;31871;-82
2022/12/09 09:01:33;;;;;;;12.30;7.50;;;;;;;2.59;81.06;95842.31;105928;1287;22506;-81
2022/12/09 09:04:04;;;;;;;8.30;5.10;;;;;;;2.65;80.72;95841.12;105895;1291;22469;-87
2022/12/09 09:06:33;;;;;;;12.30;7.80;;;;;;;2.68;80.64;95835.27;105931;1292;23280;-88
2022/12/09 09:09:02;;;;;;;11.90;6.80;;;;;;;2.73;80.41;95828.17;105814;1292;22493;-88
2022/12/09 09:11:33;;;;;;;13.70;7.50;;;;;;;2.81;80.23;95824.98;105835;1285;24211;-88
2022/12/09 09:14:04;;;;;;;11.40;7.10;;;;;;;2.82;80.04;95817.96;105838;1286;22459;-87
2022/12/09 09:16:33;;;;;;;10.10;6.40;;;;;;;2.86;79.80;95814.73;105880;1285;22466;-87
2022/12/09 09:19:04;;;;;;;10.70;6.60;;;;;;;2.91;79.50;95809.59;105791;1285;28398;-86
2022/12/09 09:21:34;;;;;;;12.40;6.60;;;;;;;2.94;78.85;95801.49;105814;1301;22417;-84
2022/12/09 09:24:07;;;;;;;7.70;5.30;;;;;;;2.99;79.15;95796.16;105888;1287;22451;-86
2022/12/09 09:26:40;;;;;;;7.90;5.50;;;;;;;3.11;78.77;95793.69;105909;1286;26405;-85
2022/12/09 09:29:10;;;;;;;7.50;5.00;;;;;;;3.14;78.01;95800.62;105777;1301;36673;-89
2022/12/09 09:31:38;;;;;;;7.90;5.10;;;;;;;3.14;77.74;95806.75;105848;1301;22460;-86
2022/12/09 09:34:06;;;;;;;9.70;5.50;;;;;;;3.18;77.51;95803.26;105810;1279;26555;-89
2022/12/09 09:36:35;;;;;;;7.50;5.30;;;;;;;3.24;77.68;95802.36;105853;1287;22456;-80
2022/12/09 09:39:21;;;;;;;7.80;5.30;;;;;;;3.47;77.77;95806.36;105742;1301;66088;-89
2022/12/09 09:41:56;;;;;;;6.80;5.30;;;;;;;3.75;77.40;95801.74;105884;1295;23700;-88
2022/12/09 09:44:29;;;;;;;7.20;4.80;;;;;;;3.93;76.80;95800.98;105848;1301;22481;-89
2022/12/09 09:46:59;;;;;;;7.20;5.30;;;;;;;3.98;75.69;95794.26;105830;1300;25176;-80
2022/12/09 09:49:34;;;;;;;5.40;4.30;;;;;;;4.00;75.14;95793.99;105821;1292;23159;-85
2022/12/09 09:52:06;;;;;;;7.60;5.20;;;;;;;4.02;75.19;95792.27;105980;1282;22473;-85
2022/12/09 09:54:35;;;;;;;9.50;5.90;;;;;;;3.93;74.34;95789.92;105853;1279;22482;-85
2022/12/09 09:57:12;;;;;;;8.80;5.60;;;;;;;3.88;74.71;95783.14;105852;1287;22476;-84
2022/12/09 09:59:53;;;;;;;8.10;5.70;;;;;;;3.89;74.88;95780.41;105852;1279;25263;-86
2022/12/09 10:02:35;;;;;;;10.00;6.90;;;;;;;3.82;74.49;95776.15;105858;1301;22514;-86
2022/12/09 10:05:12;;;;;;;13.90;8.10;;;;;;;3.80;74.17;95776.61;105880;1285;22530;-87
2022/12/09 10:07:43;;;;;;;11.00;7.60;;;;;;;3.76;74.26;95772.76;105780;1292;23169;-88
2022/12/09 10:10:25;;;;;;;12.40;8.00;;;;;;;3.70;74.23;95770.16;105847;1286;22497;-85
2022/12/09 10:13:17;;;;;;;13.00;8.80;;;;;;;3.56;74.51;95764.27;105872;1292;25370;-82
2022/12/09 10:15:53;;;;;;;11.10;7.80;;;;;;;3.43;74.71;95762.94;105847;1285;23099;-83
2022/12/09 10:18:29;;;;;;;11.30;8.30;;;;;;;3.35;74.91;95764.09;105836;1285;31012;-84
2022/12/09 10:20:57;;;;;;;12.10;8.70;;;;;;;3.29;75.00;95765.64;105874;1286;24926;-85
2022/12/09 10:23:30;;;;;;;13.00;8.50;;;;;;;3.25;75.19;95769.34;105850;1301;22923;-84
2022/12/09 10:26:05;;;;;;;16.00;9.70;;;;;;;3.25;75.38;95769.27;105938;1286;24393;-88
2022/12/09 10:28:37;;;;;;;17.20;9.70;;;;;;;3.21;75.66;95766.35;105849;1292;23118;-85
2022/12/09 10:31:09;;;;;;;14.90;10.20;;;;;;;3.19;75.76;95765.40;105849;1301;24260;-89
2022/12/09 10:33:41;;;;;;;15.30;10.10;;;;;;;3.16;76.11;95773.61;105903;1292;25213;-87
2022/12/09 10:36:22;;;;;;;14.60;10.10;;;;;;;3.16;76.06;95782.40;105863;1300;22461;-85
2022/12/09 10:38:51;;;;;;;13.10;8.70;;;;;;;3.12;76.14;95783.02;105731;1285;74513;-87
2022/12/09 10:44:27;;;;;;;7.60;4.80;;;;;;;3.00;75.72;95782.29;105846;1301;22577;-88
2022/12/09 10:47:03;;;;;;;7.00;5.10;;;;;;;2.94;75.42;95772.98;105862;1298;22553;-86
2022/12/09 10:49:39;;;;;;;8.40;5.00;;;;;;;2.88;74.86;95771.14;105838;1292;25402;-88
2022/12/09 10:52:20;;;;;;;7.20;4.90;;;;;;;2.78;74.38;95772.27;105926;1285;22499;-86
2022/12/09 10:54:48;;;;;;;6.40;4.70;;;;;;;2.70;74.48;95770.90;105872;1292;25292;-82
2022/12/09 10:57:26;;;;;;;10.90;6.10;;;;;;;2.74;75.06;95770.29;105698;1301;22754;-83
2022/12/09 11:00:01;;;;;;;8.70;6.00;;;;;;;2.86;75.50;95766.64;105870;1285;22460;-84
2022/12/09 11:02:32;;;;;;;9.60;6.10;;;;;;;2.92;75.28;95761.02;105855;1300;22461;-85
2022/12/09 11:05:26;;;;;;;11.30;6.40;;;;;;;3.00;75.50;95757.31;105885;1300;22472;-85
2022/12/09 11:07:57;;;;;;;7.00;4.70;;;;;;;3.13;75.48;95753.99;105772;1301;39032;-85
2022/12/09 11:10:28;;;;;;;9.20;5.80;;;;;;;3.22;74.95;95752.63;105878;1286;22457;-84
2022/12/09 11:13:14;;;;;;;8.20;5.70;;;;;;;3.26;75.27;95748.48;105890;1288;22467;-85
2022/12/09 11:15:49;;;;;;;8.50;5.40;;;;;;;3.34;74.92;95750.56;105881;1301;23700;-84
2022/12/09 11:18:25;;;;;;;7.50;5.00;;;;;;;3.41;74.66;95750.14;105731;1285;85855;-85
2022/12/09 11:20:58;;;;;;;7.90;4.90;;;;;;;3.42;74.16;95749.79;105897;1285;22456;-85
2022/12/09 11:23:28;;;;;;;7.90;5.70;;;;;;;3.36;73.89;95744.66;105849;1285;25823;-85
2022/12/09 11:25:58;;;;;;;10.10;6.90;;;;;;;3.36;74.10;95744.39;105860;1286;23081;-85
2022/12/09 11:28:30;;;;;;;;;;;;;;;3.43;74.34;95755.81;105732;1285;86360;-85
2022/12/09 11:31:00;;;;;;;11.00;6.70;;;;;;;3.52;74.32;95757.80;105881;1289;22568;-86
2022/12/09 11:33:31;;;;;;;9.50;7.10;;;;;;;3.60;74.21;95757.36;105873;1279;22492;-86
2022/12/09 11:36:04;;;;;;;9.90;5.90;;;;;;;3.59;74.00;95755.16;105869;1285;22478;-84
2022/12/09 11:38:38;;;;;;;10.40;7.00;;;;;;;3.59;73.57;95749.77;105790;1301;49977;-84
2022/12/09 11:44:20;;;;;;;12.70;7.60;;;;;;;3.75;73.44;95737.36;105832;1289;25266;-84
2022/12/09 11:46:57;;;;;;;13.10;8.40;;;;;;;3.78;73.32;95738.52;105849;1300;22595;-83
2022/12/09 11:49:31;;;;;;;13.70;8.90;;;;;;;3.83;73.05;95735.52;105912;1301;30399;-82
2022/12/09 11:52:05;;;;;;;12.10;7.90;;;;;;;3.83;72.74;95730.33;105883;1301;22494;-85